Terminal Aerodrome Forecast
Issued by NWS Corpus Christi, TX

Home | Current Version | Previous Version | Text Only | Print | Product List | Glossary On
Versions: 1 2 3 4 5 6 7 8 9 10 11 12 13 14 15
000
FTUS44 KCRP 182100 AAA
TAFCRP
TAF AMD
KCRP 182151Z 1822/1918 16011KT P6SM VCSH SCT024 BKN050
      TEMPO 1822/1902 5SM -SHRA BR BKN020
     FM190200 13009KT P6SM VCSH BKN018
     FM190600 16012KT 6SM BR VCSH SCT009 OVC014 PROB30 1909/1915 4SM
      TSRA BR BKN009CB
     FM191500 30009KT P6SM VCTS SCT007 BKN017CB=

USA.gov is the U.S. government's official web portal to all federal, state and local government web resources and services.